sensor_id;sensor_type;location;lat;lon;timestamp;temperature;humidity
78461;SHT31;67755;51.986;5.696;2023-10-31T00:01:03;15.2;69.4
78461;SHT31;67755;51.986;5.696;2023-10-31T00:03:32;15.2;69.0
78461;SHT31;67755;51.986;5.696;2023-10-31T00:06:02;15.2;69.0
78461;SHT31;67755;51.986;5.696;2023-10-31T00:08:33;15.1;69.4
78461;SHT31;67755;51.986;5.696;2023-10-31T00:11:01;15.1;69.5
78461;SHT31;67755;51.986;5.696;2023-10-31T00:13:30;15.1;69.2
78461;SHT31;67755;51.986;5.696;2023-10-31T00:15:58;15.1;69.7
78461;SHT31;67755;51.986;5.696;2023-10-31T00:18:27;15.1;69.7
78461;SHT31;67755;51.986;5.696;2023-10-31T00:20:58;15.0;69.0
78461;SHT31;67755;51.986;5.696;2023-10-31T00:23:26;15.0;69.4
78461;SHT31;67755;51.986;5.696;2023-10-31T00:25:55;15.0;69.4
78461;SHT31;67755;51.986;5.696;2023-10-31T00:28:24;15.0;68.5
78461;SHT31;67755;51.986;5.696;2023-10-31T00:30:52;15.0;68.6
78461;SHT31;67755;51.986;5.696;2023-10-31T00:33:21;14.9;68.7
78461;SHT31;67755;51.986;5.696;2023-10-31T00:35:50;14.9;68.9
78461;SHT31;67755;51.986;5.696;2023-10-31T00:38:18;14.9;69.1
78461;SHT31;67755;51.986;5.696;2023-10-31T00:40:47;14.9;69.2
78461;SHT31;67755;51.986;5.696;2023-10-31T00:43:15;14.9;68.8
78461;SHT31;67755;51.986;5.696;2023-10-31T00:45:44;14.9;68.6
78461;SHT31;67755;51.986;5.696;2023-10-31T00:48:12;14.8;68.3
78461;SHT31;67755;51.986;5.696;2023-10-31T00:50:41;14.8;68.2
78461;SHT31;67755;51.986;5.696;2023-10-31T00:53:10;14.8;68.4
78461;SHT31;67755;51.986;5.696;2023-10-31T00:55:40;14.8;68.8
78461;SHT31;67755;51.986;5.696;2023-10-31T00:58:10;14.8;68.9
78461;SHT31;67755;51.986;5.696;2023-10-31T01:00:39;14.8;69.2
78461;SHT31;67755;51.986;5.696;2023-10-31T01:03:08;14.8;69.3
78461;SHT31;67755;51.986;5.696;2023-10-31T01:05:36;14.8;69.2
78461;SHT31;67755;51.986;5.696;2023-10-31T01:08:05;14.8;69.7
78461;SHT31;67755;51.986;5.696;2023-10-31T01:10:34;14.8;69.3
78461;SHT31;67755;51.986;5.696;2023-10-31T01:13:02;14.8;69.4
78461;SHT31;67755;51.986;5.696;2023-10-31T01:15:31;14.8;69.6
78461;SHT31;67755;51.986;5.696;2023-10-31T01:17:59;14.8;69.3
78461;SHT31;67755;51.986;5.696;2023-10-31T01:20:28;14.8;69.7
78461;SHT31;67755;51.986;5.696;2023-10-31T01:22:56;14.8;69.9
78461;SHT31;67755;51.986;5.696;2023-10-31T01:25:25;14.7;70.3
78461;SHT31;67755;51.986;5.696;2023-10-31T01:27:53;14.7;70.1
78461;SHT31;67755;51.986;5.696;2023-10-31T01:30:22;14.7;69.9
78461;SHT31;67755;51.986;5.696;2023-10-31T01:32:51;14.7;70.1
78461;SHT31;67755;51.986;5.696;2023-10-31T01:35:19;14.7;70.0
78461;SHT31;67755;51.986;5.696;2023-10-31T01:37:48;14.7;70.2
78461;SHT31;67755;51.986;5.696;2023-10-31T01:40:17;14.7;70.2
78461;SHT31;67755;51.986;5.696;2023-10-31T01:42:45;14.7;70.3
78461;SHT31;67755;51.986;5.696;2023-10-31T01:45:14;14.7;70.0
78461;SHT31;67755;51.986;5.696;2023-10-31T01:47:43;14.7;70.2
78461;SHT31;67755;51.986;5.696;2023-10-31T01:50:13;14.7;70.5
78461;SHT31;67755;51.986;5.696;2023-10-31T01:52:44;14.7;70.4
78461;SHT31;67755;51.986;5.696;2023-10-31T01:55:13;14.6;70.6
78461;SHT31;67755;51.986;5.696;2023-10-31T01:57:44;14.6;70.4
78461;SHT31;67755;51.986;5.696;2023-10-31T02:00:15;14.6;70.5
78461;SHT31;67755;51.986;5.696;2023-10-31T02:02:45;14.6;70.6
78461;SHT31;67755;51.986;5.696;2023-10-31T02:05:15;14.6;70.6
78461;SHT31;67755;51.986;5.696;2023-10-31T02:07:46;14.6;70.5
78461;SHT31;67755;51.986;5.696;2023-10-31T02:10:15;14.6;70.6
78461;SHT31;67755;51.986;5.696;2023-10-31T02:12:43;14.6;70.8
78461;SHT31;67755;51.986;5.696;2023-10-31T02:15:12;14.7;70.9
78461;SHT31;67755;51.986;5.696;2023-10-31T02:17:40;14.7;70.9
78461;SHT31;67755;51.986;5.696;2023-10-31T02:20:10;14.7;70.6
78461;SHT31;67755;51.986;5.696;2023-10-31T02:22:38;14.7;70.5
78461;SHT31;67755;51.986;5.696;2023-10-31T02:25:19;14.7;70.6
78461;SHT31;67755;51.986;5.696;2023-10-31T02:27:47;14.7;70.8
78461;SHT31;67755;51.986;5.696;2023-10-31T02:30:18;14.7;70.7
78461;SHT31;67755;51.986;5.696;2023-10-31T02:32:47;14.7;71.0
78461;SHT31;67755;51.986;5.696;2023-10-31T02:35:17;14.7;71.0
78461;SHT31;67755;51.986;5.696;2023-10-31T02:37:46;14.7;70.9
78461;SHT31;67755;51.986;5.696;2023-10-31T02:40:15;14.7;71.0
78461;SHT31;67755;51.986;5.696;2023-10-31T02:42:44;14.7;71.1
78461;SHT31;67755;51.986;5.696;2023-10-31T02:45:13;14.7;71.5
78461;SHT31;67755;51.986;5.696;2023-10-31T02:47:42;14.6;71.7
78461;SHT31;67755;51.986;5.696;2023-10-31T02:50:11;14.6;71.6
78461;SHT31;67755;51.986;5.696;2023-10-31T02:52:39;14.6;71.6
78461;SHT31;67755;51.986;5.696;2023-10-31T02:55:08;14.6;71.4
78461;SHT31;67755;51.986;5.696;2023-10-31T02:57:37;14.6;71.6
78461;SHT31;67755;51.986;5.696;2023-10-31T03:00:06;14.6;71.8
78461;SHT31;67755;51.986;5.696;2023-10-31T03:02:36;14.6;71.8
78461;SHT31;67755;51.986;5.696;2023-10-31T03:05:05;14.6;71.6
78461;SHT31;67755;51.986;5.696;2023-10-31T03:07:34;14.6;71.5
78461;SHT31;67755;51.986;5.696;2023-10-31T03:10:03;14.6;71.6
78461;SHT31;67755;51.986;5.696;2023-10-31T03:12:33;14.6;71.9
78461;SHT31;67755;51.986;5.696;2023-10-31T03:15:02;14.6;71.9
78461;SHT31;67755;51.986;5.696;2023-10-31T03:17:32;14.6;71.6
78461;SHT31;67755;51.986;5.696;2023-10-31T03:20:00;14.6;71.7
78461;SHT31;67755;51.986;5.696;2023-10-31T03:22:29;14.6;71.3
78461;SHT31;67755;51.986;5.696;2023-10-31T03:24:58;14.6;71.9
78461;SHT31;67755;51.986;5.696;2023-10-31T03:27:27;14.6;71.8
78461;SHT31;67755;51.986;5.696;2023-10-31T03:29:56;14.6;71.5
78461;SHT31;67755;51.986;5.696;2023-10-31T03:32:24;14.6;72.0
78461;SHT31;67755;51.986;5.696;2023-10-31T03:34:53;14.6;72.2
78461;SHT31;67755;51.986;5.696;2023-10-31T03:37:22;14.6;71.6
78461;SHT31;67755;51.986;5.696;2023-10-31T03:39:50;14.6;71.4
78461;SHT31;67755;51.986;5.696;2023-10-31T03:42:19;14.6;71.5
78461;SHT31;67755;51.986;5.696;2023-10-31T03:44:47;14.6;71.8
78461;SHT31;67755;51.986;5.696;2023-10-31T03:47:16;14.6;71.5
78461;SHT31;67755;51.986;5.696;2023-10-31T03:49:44;14.6;71.6
78461;SHT31;67755;51.986;5.696;2023-10-31T03:52:13;14.6;71.7
78461;SHT31;67755;51.986;5.696;2023-10-31T03:54:41;14.6;71.5
78461;SHT31;67755;51.986;5.696;2023-10-31T03:57:10;14.6;71.7
78461;SHT31;67755;51.986;5.696;2023-10-31T03:59:38;14.6;71.7
78461;SHT31;67755;51.986;5.696;2023-10-31T04:02:07;14.6;71.6
78461;SHT31;67755;51.986;5.696;2023-10-31T04:04:36;14.6;71.8
78461;SHT31;67755;51.986;5.696;2023-10-31T04:07:04;14.6;71.7
78461;SHT31;67755;51.986;5.696;2023-10-31T04:09:33;14.6;71.9
78461;SHT31;67755;51.986;5.696;2023-10-31T04:12:04;14.6;71.6
78461;SHT31;67755;51.986;5.696;2023-10-31T04:14:33;14.6;71.4
78461;SHT31;67755;51.986;5.696;2023-10-31T04:17:02;14.6;71.7
78461;SHT31;67755;51.986;5.696;2023-10-31T04:19:31;14.6;71.7
78461;SHT31;67755;51.986;5.696;2023-10-31T04:21:59;14.6;71.3
78461;SHT31;67755;51.986;5.696;2023-10-31T04:24:28;14.6;71.4
78461;SHT31;67755;51.986;5.696;2023-10-31T04:26:57;14.6;71.7
78461;SHT31;67755;51.986;5.696;2023-10-31T04:29:26;14.6;71.4
78461;SHT31;67755;51.986;5.696;2023-10-31T04:31:54;14.6;71.3
78461;SHT31;67755;51.986;5.696;2023-10-31T04:34:23;14.6;71.4
78461;SHT31;67755;51.986;5.696;2023-10-31T04:36:51;14.6;71.6
78461;SHT31;67755;51.986;5.696;2023-10-31T04:39:20;14.6;71.6
78461;SHT31;67755;51.986;5.696;2023-10-31T04:41:50;14.6;71.7
78461;SHT31;67755;51.986;5.696;2023-10-31T04:44:19;14.6;71.7
78461;SHT31;67755;51.986;5.696;2023-10-31T04:46:49;14.6;71.8
78461;SHT31;67755;51.986;5.696;2023-10-31T04:49:18;14.6;71.8
78461;SHT31;67755;51.986;5.696;2023-10-31T04:51:48;14.6;71.7
78461;SHT31;67755;51.986;5.696;2023-10-31T04:54:17;14.6;71.4
78461;SHT31;67755;51.986;5.696;2023-10-31T04:56:47;14.6;71.5
78461;SHT31;67755;51.986;5.696;2023-10-31T04:59:16;14.6;71.6
78461;SHT31;67755;51.986;5.696;2023-10-31T05:01:50;14.6;71.6
78461;SHT31;67755;51.986;5.696;2023-10-31T05:04:18;14.6;71.1
78461;SHT31;67755;51.986;5.696;2023-10-31T05:06:49;14.6;70.7
78461;SHT31;67755;51.986;5.696;2023-10-31T05:09:17;14.7;71.1
78461;SHT31;67755;51.986;5.696;2023-10-31T05:11:46;14.7;70.4
78461;SHT31;67755;51.986;5.696;2023-10-31T05:14:15;14.7;70.6
78461;SHT31;67755;51.986;5.696;2023-10-31T05:16:44;14.7;70.5
78461;SHT31;67755;51.986;5.696;2023-10-31T05:19:13;14.7;70.4
78461;SHT31;67755;51.986;5.696;2023-10-31T05:21:45;14.7;70.3
78461;SHT31;67755;51.986;5.696;2023-10-31T05:24:14;14.7;70.4
78461;SHT31;67755;51.986;5.696;2023-10-31T05:26:42;14.7;69.7
78461;SHT31;67755;51.986;5.696;2023-10-31T05:29:11;14.7;70.2
78461;SHT31;67755;51.986;5.696;2023-10-31T05:31:40;14.7;70.1
78461;SHT31;67755;51.986;5.696;2023-10-31T05:34:12;14.7;70.4
78461;SHT31;67755;51.986;5.696;2023-10-31T05:36:40;14.7;70.3
78461;SHT31;67755;51.986;5.696;2023-10-31T05:39:09;14.7;70.2
78461;SHT31;67755;51.986;5.696;2023-10-31T05:41:40;14.7;70.1
78461;SHT31;67755;51.986;5.696;2023-10-31T05:44:09;14.7;70.2
78461;SHT31;67755;51.986;5.696;2023-10-31T05:46:39;14.7;69.9
78461;SHT31;67755;51.986;5.696;2023-10-31T05:49:09;14.7;69.5
78461;SHT31;67755;51.986;5.696;2023-10-31T05:51:38;14.7;69.8
78461;SHT31;67755;51.986;5.696;2023-10-31T05:54:08;14.6;70.2
78461;SHT31;67755;51.986;5.696;2023-10-31T05:56:37;14.6;69.6
78461;SHT31;67755;51.986;5.696;2023-10-31T05:59:06;14.6;69.3
78461;SHT31;67755;51.986;5.696;2023-10-31T06:01:35;14.6;69.2
78461;SHT31;67755;51.986;5.696;2023-10-31T06:04:04;14.6;69.0
78461;SHT31;67755;51.986;5.696;2023-10-31T06:06:34;14.6;68.8
78461;SHT31;67755;51.986;5.696;2023-10-31T06:09:05;14.6;68.8
78461;SHT31;67755;51.986;5.696;2023-10-31T06:11:35;14.6;68.9
78461;SHT31;67755;51.986;5.696;2023-10-31T06:14:06;14.6;68.7
78461;SHT31;67755;51.986;5.696;2023-10-31T06:16:39;14.6;68.9
78461;SHT31;67755;51.986;5.696;2023-10-31T06:19:08;14.5;68.7
78461;SHT31;67755;51.986;5.696;2023-10-31T06:21:37;14.5;68.9
78461;SHT31;67755;51.986;5.696;2023-10-31T06:24:07;14.5;68.9
78461;SHT31;67755;51.986;5.696;2023-10-31T06:26:36;14.5;68.8
78461;SHT31;67755;51.986;5.696;2023-10-31T06:29:05;14.5;69.1
78461;SHT31;67755;51.986;5.696;2023-10-31T06:31:34;14.5;69.0
78461;SHT31;67755;51.986;5.696;2023-10-31T06:34:03;14.5;69.2
78461;SHT31;67755;51.986;5.696;2023-10-31T06:36:32;14.5;69.1
78461;SHT31;67755;51.986;5.696;2023-10-31T06:39:01;14.5;69.3
78461;SHT31;67755;51.986;5.696;2023-10-31T06:41:29;14.5;69.4
78461;SHT31;67755;51.986;5.696;2023-10-31T06:43:58;14.5;69.7
78461;SHT31;67755;51.986;5.696;2023-10-31T06:46:26;14.5;69.7
78461;SHT31;67755;51.986;5.696;2023-10-31T06:48:55;14.5;69.7
78461;SHT31;67755;51.986;5.696;2023-10-31T06:51:24;14.4;69.8
78461;SHT31;67755;51.986;5.696;2023-10-31T06:53:53;14.4;69.9
78461;SHT31;67755;51.986;5.696;2023-10-31T06:56:21;14.4;69.8
78461;SHT31;67755;51.986;5.696;2023-10-31T06:58:50;14.4;69.9
78461;SHT31;67755;51.986;5.696;2023-10-31T07:01:19;14.4;70.1
78461;SHT31;67755;51.986;5.696;2023-10-31T07:03:47;14.4;70.1
78461;SHT31;67755;51.986;5.696;2023-10-31T07:06:16;14.5;70.0
78461;SHT31;67755;51.986;5.696;2023-10-31T07:08:44;14.5;70.1
78461;SHT31;67755;51.986;5.696;2023-10-31T07:11:13;14.5;70.2
78461;SHT31;67755;51.986;5.696;2023-10-31T07:13:41;14.5;70.1
78461;SHT31;67755;51.986;5.696;2023-10-31T07:16:10;14.5;70.2
78461;SHT31;67755;51.986;5.696;2023-10-31T07:18:39;14.5;70.0
78461;SHT31;67755;51.986;5.696;2023-10-31T07:21:08;14.5;70.0
78461;SHT31;67755;51.986;5.696;2023-10-31T07:23:36;14.5;69.9
78461;SHT31;67755;51.986;5.696;2023-10-31T07:26:05;14.5;70.2
78461;SHT31;67755;51.986;5.696;2023-10-31T07:28:34;14.5;70.1
78461;SHT31;67755;51.986;5.696;2023-10-31T07:31:03;14.5;70.1
78461;SHT31;67755;51.986;5.696;2023-10-31T07:33:33;14.5;70.1
78461;SHT31;67755;51.986;5.696;2023-10-31T07:36:02;14.5;70.3
78461;SHT31;67755;51.986;5.696;2023-10-31T07:38:31;14.5;70.3
78461;SHT31;67755;51.986;5.696;2023-10-31T07:41:01;14.4;70.4
78461;SHT31;67755;51.986;5.696;2023-10-31T07:43:30;14.4;70.5
78461;SHT31;67755;51.986;5.696;2023-10-31T07:45:59;14.4;70.8
78461;SHT31;67755;51.986;5.696;2023-10-31T07:48:27;14.4;71.0
78461;SHT31;67755;51.986;5.696;2023-10-31T07:50:56;14.4;71.2
78461;SHT31;67755;51.986;5.696;2023-10-31T07:53:25;14.4;71.4
78461;SHT31;67755;51.986;5.696;2023-10-31T07:55:53;14.4;71.4
78461;SHT31;67755;51.986;5.696;2023-10-31T07:58:22;14.4;71.3
78461;SHT31;67755;51.986;5.696;2023-10-31T08:00:51;14.4;71.2
78461;SHT31;67755;51.986;5.696;2023-10-31T08:03:19;14.5;71.4
78461;SHT31;67755;51.986;5.696;2023-10-31T08:05:48;14.5;71.8
78461;SHT31;67755;51.986;5.696;2023-10-31T08:08:16;14.5;71.9
78461;SHT31;67755;51.986;5.696;2023-10-31T08:10:45;14.5;72.5
78461;SHT31;67755;51.986;5.696;2023-10-31T08:13:13;14.5;72.4
78461;SHT31;67755;51.986;5.696;2023-10-31T08:15:42;14.5;73.2
78461;SHT31;67755;51.986;5.696;2023-10-31T08:18:11;14.5;73.3
78461;SHT31;67755;51.986;5.696;2023-10-31T08:20:39;14.5;73.2
78461;SHT31;67755;51.986;5.696;2023-10-31T08:23:09;14.5;73.1
78461;SHT31;67755;51.986;5.696;2023-10-31T08:25:38;14.5;73.4
78461;SHT31;67755;51.986;5.696;2023-10-31T08:28:09;14.6;72.7
78461;SHT31;67755;51.986;5.696;2023-10-31T08:30:38;14.6;72.7
78461;SHT31;67755;51.986;5.696;2023-10-31T08:33:08;14.6;73.7
78461;SHT31;67755;51.986;5.696;2023-10-31T08:35:37;14.6;73.2
78461;SHT31;67755;51.986;5.696;2023-10-31T08:38:06;14.7;73.0
78461;SHT31;67755;51.986;5.696;2023-10-31T08:40:34;14.7;73.1
78461;SHT31;67755;51.986;5.696;2023-10-31T08:43:03;14.7;73.4
78461;SHT31;67755;51.986;5.696;2023-10-31T08:45:32;14.7;73.1
78461;SHT31;67755;51.986;5.696;2023-10-31T08:48:01;14.7;72.6
78461;SHT31;67755;51.986;5.696;2023-10-31T08:50:31;14.8;73.2
78461;SHT31;67755;51.986;5.696;2023-10-31T08:53:00;14.8;73.0
78461;SHT31;67755;51.986;5.696;2023-10-31T08:55:29;14.8;72.5
78461;SHT31;67755;51.986;5.696;2023-10-31T08:57:57;14.8;73.5
78461;SHT31;67755;51.986;5.696;2023-10-31T09:00:26;14.8;73.5
78461;SHT31;67755;51.986;5.696;2023-10-31T09:02:55;14.9;74.5
78461;SHT31;67755;51.986;5.696;2023-10-31T09:05:24;14.9;73.5
78461;SHT31;67755;51.986;5.696;2023-10-31T09:07:52;14.9;73.9
78461;SHT31;67755;51.986;5.696;2023-10-31T09:10:21;14.9;73.6
78461;SHT31;67755;51.986;5.696;2023-10-31T09:12:50;15.0;73.1
78461;SHT31;67755;51.986;5.696;2023-10-31T09:15:21;15.0;74.0
78461;SHT31;67755;51.986;5.696;2023-10-31T09:17:50;15.0;73.1
78461;SHT31;67755;51.986;5.696;2023-10-31T09:20:19;15.0;72.3
78461;SHT31;67755;51.986;5.696;2023-10-31T09:22:48;15.0;73.9
78461;SHT31;67755;51.986;5.696;2023-10-31T09:25:16;15.0;73.4
78461;SHT31;67755;51.986;5.696;2023-10-31T09:27:45;15.1;73.5
78461;SHT31;67755;51.986;5.696;2023-10-31T09:30:16;15.1;73.0
78461;SHT31;67755;51.986;5.696;2023-10-31T09:32:44;15.1;73.9
78461;SHT31;67755;51.986;5.696;2023-10-31T09:35:15;15.1;74.6
78461;SHT31;67755;51.986;5.696;2023-10-31T09:37:43;15.1;74.8
78461;SHT31;67755;51.986;5.696;2023-10-31T09:40:15;15.2;73.8
78461;SHT31;67755;51.986;5.696;2023-10-31T09:42:44;15.2;74.2
78461;SHT31;67755;51.986;5.696;2023-10-31T09:45:13;15.2;73.9
78461;SHT31;67755;51.986;5.696;2023-10-31T09:47:43;15.3;72.5
78461;SHT31;67755;51.986;5.696;2023-10-31T09:50:12;15.3;72.4
78461;SHT31;67755;51.986;5.696;2023-10-31T09:52:41;15.3;72.5
78461;SHT31;67755;51.986;5.696;2023-10-31T09:55:10;15.3;72.7
78461;SHT31;67755;51.986;5.696;2023-10-31T09:57:39;15.3;72.7
78461;SHT31;67755;51.986;5.696;2023-10-31T10:00:09;15.3;72.4
78461;SHT31;67755;51.986;5.696;2023-10-31T10:02:38;15.4;72.1
78461;SHT31;67755;51.986;5.696;2023-10-31T10:05:09;15.4;72.7
78461;SHT31;67755;51.986;5.696;2023-10-31T10:07:41;15.4;73.0
78461;SHT31;67755;51.986;5.696;2023-10-31T10:10:11;15.4;72.2
78461;SHT31;67755;51.986;5.696;2023-10-31T10:12:43;15.4;71.9
78461;SHT31;67755;51.986;5.696;2023-10-31T10:15:13;15.4;71.8
78461;SHT31;67755;51.986;5.696;2023-10-31T10:17:51;15.4;72.5
78461;SHT31;67755;51.986;5.696;2023-10-31T10:20:20;15.5;72.6
78461;SHT31;67755;51.986;5.696;2023-10-31T10:22:48;15.5;72.7
78461;SHT31;67755;51.986;5.696;2023-10-31T10:25:18;15.5;72.1
78461;SHT31;67755;51.986;5.696;2023-10-31T10:27:49;15.5;71.6
78461;SHT31;67755;51.986;5.696;2023-10-31T10:30:17;15.5;72.2
78461;SHT31;67755;51.986;5.696;2023-10-31T10:32:49;15.6;71.0
78461;SHT31;67755;51.986;5.696;2023-10-31T10:35:17;15.6;71.8
78461;SHT31;67755;51.986;5.696;2023-10-31T10:37:46;15.6;71.5
78461;SHT31;67755;51.986;5.696;2023-10-31T10:40:17;15.6;72.7
78461;SHT31;67755;51.986;5.696;2023-10-31T10:42:47;15.6;73.0
78461;SHT31;67755;51.986;5.696;2023-10-31T10:45:16;15.7;73.0
78461;SHT31;67755;51.986;5.696;2023-10-31T10:47:47;15.7;71.8
78461;SHT31;67755;51.986;5.696;2023-10-31T10:50:18;15.7;71.7
78461;SHT31;67755;51.986;5.696;2023-10-31T10:53:03;15.8;72.1
78461;SHT31;67755;51.986;5.696;2023-10-31T10:55:39;15.8;73.5
78461;SHT31;67755;51.986;5.696;2023-10-31T10:58:19;15.8;72.8
78461;SHT31;67755;51.986;5.696;2023-10-31T11:00:50;15.9;72.8
78461;SHT31;67755;51.986;5.696;2023-10-31T11:03:22;15.9;71.9
78461;SHT31;67755;51.986;5.696;2023-10-31T11:05:54;15.9;72.5
78461;SHT31;67755;51.986;5.696;2023-10-31T11:08:24;16.0;72.5
78461;SHT31;67755;51.986;5.696;2023-10-31T11:10:55;16.0;70.2
78461;SHT31;67755;51.986;5.696;2023-10-31T11:13:25;16.0;69.7
78461;SHT31;67755;51.986;5.696;2023-10-31T11:15:59;16.1;70.8
78461;SHT31;67755;51.986;5.696;2023-10-31T11:18:30;16.1;71.2
78461;SHT31;67755;51.986;5.696;2023-10-31T11:20:59;16.1;70.7
78461;SHT31;67755;51.986;5.696;2023-10-31T11:23:29;16.1;69.9
78461;SHT31;67755;51.986;5.696;2023-10-31T11:25:59;16.1;70.3
78461;SHT31;67755;51.986;5.696;2023-10-31T11:28:28;16.1;70.3
78461;SHT31;67755;51.986;5.696;2023-10-31T11:31:01;16.1;70.0
78461;SHT31;67755;51.986;5.696;2023-10-31T11:33:30;16.1;70.3
78461;SHT31;67755;51.986;5.696;2023-10-31T11:36:04;16.1;70.1
78461;SHT31;67755;51.986;5.696;2023-10-31T11:38:35;16.1;69.6
78461;SHT31;67755;51.986;5.696;2023-10-31T11:41:05;16.2;70.8
78461;SHT31;67755;51.986;5.696;2023-10-31T11:43:54;16.2;71.2
78461;SHT31;67755;51.986;5.696;2023-10-31T11:46:25;16.2;69.4
78461;SHT31;67755;51.986;5.696;2023-10-31T11:48:57;16.2;68.3
78461;SHT31;67755;51.986;5.696;2023-10-31T11:51:26;16.2;67.6
78461;SHT31;67755;51.986;5.696;2023-10-31T11:53:59;16.2;67.6
78461;SHT31;67755;51.986;5.696;2023-10-31T11:56:29;16.2;67.8
78461;SHT31;67755;51.986;5.696;2023-10-31T11:59:03;16.2;68.3
78461;SHT31;67755;51.986;5.696;2023-10-31T12:01:33;16.2;68.6
78461;SHT31;67755;51.986;5.696;2023-10-31T12:04:01;16.2;67.8
78461;SHT31;67755;51.986;5.696;2023-10-31T12:06:32;16.2;68.3
78461;SHT31;67755;51.986;5.696;2023-10-31T12:09:01;16.2;68.6
78461;SHT31;67755;51.986;5.696;2023-10-31T12:11:30;16.2;68.6
78461;SHT31;67755;51.986;5.696;2023-10-31T12:14:00;16.1;68.7
78461;SHT31;67755;51.986;5.696;2023-10-31T12:16:33;16.1;67.7
78461;SHT31;67755;51.986;5.696;2023-10-31T12:19:04;16.1;68.0
78461;SHT31;67755;51.986;5.696;2023-10-31T12:21:38;16.1;68.8
78461;SHT31;67755;51.986;5.696;2023-10-31T12:24:09;16.1;69.3
78461;SHT31;67755;51.986;5.696;2023-10-31T12:26:42;16.1;68.9
78461;SHT31;67755;51.986;5.696;2023-10-31T12:29:12;16.2;68.6
78461;SHT31;67755;51.986;5.696;2023-10-31T12:31:42;16.2;68.1
78461;SHT31;67755;51.986;5.696;2023-10-31T12:34:13;16.2;68.9
78461;SHT31;67755;51.986;5.696;2023-10-31T12:36:43;16.2;69.1
78461;SHT31;67755;51.986;5.696;2023-10-31T12:39:13;16.2;68.1
78461;SHT31;67755;51.986;5.696;2023-10-31T12:41:44;16.2;68.0
78461;SHT31;67755;51.986;5.696;2023-10-31T12:44:17;16.2;68.4
78461;SHT31;67755;51.986;5.696;2023-10-31T12:46:49;16.2;68.2
78461;SHT31;67755;51.986;5.696;2023-10-31T12:49:20;16.2;67.9
78461;SHT31;67755;51.986;5.696;2023-10-31T12:52:00;16.2;68.2
78461;SHT31;67755;51.986;5.696;2023-10-31T12:54:32;16.2;68.8
78461;SHT31;67755;51.986;5.696;2023-10-31T12:57:02;16.2;68.5
78461;SHT31;67755;51.986;5.696;2023-10-31T12:59:32;16.2;68.3
78461;SHT31;67755;51.986;5.696;2023-10-31T13:02:02;16.2;68.4
78461;SHT31;67755;51.986;5.696;2023-10-31T13:04:33;16.2;68.8
78461;SHT31;67755;51.986;5.696;2023-10-31T13:07:03;16.2;68.5
78461;SHT31;67755;51.986;5.696;2023-10-31T13:09:33;16.2;68.5
78461;SHT31;67755;51.986;5.696;2023-10-31T13:12:04;16.2;68.4
78461;SHT31;67755;51.986;5.696;2023-10-31T13:14:34;16.2;69.1
78461;SHT31;67755;51.986;5.696;2023-10-31T13:17:05;16.2;70.3
78461;SHT31;67755;51.986;5.696;2023-10-31T13:19:33;16.3;69.9
78461;SHT31;67755;51.986;5.696;2023-10-31T13:22:02;16.3;68.9
78461;SHT31;67755;51.986;5.696;2023-10-31T13:24:31;16.3;67.6
78461;SHT31;67755;51.986;5.696;2023-10-31T13:26:59;16.3;67.8
78461;SHT31;67755;51.986;5.696;2023-10-31T13:29:29;16.3;66.6
78461;SHT31;67755;51.986;5.696;2023-10-31T13:31:58;16.3;66.3
78461;SHT31;67755;51.986;5.696;2023-10-31T13:34:26;16.3;66.6
78461;SHT31;67755;51.986;5.696;2023-10-31T13:36:59;16.3;66.6
78461;SHT31;67755;51.986;5.696;2023-10-31T13:39:28;16.3;67.2
78461;SHT31;67755;51.986;5.696;2023-10-31T13:41:58;16.3;67.0
78461;SHT31;67755;51.986;5.696;2023-10-31T13:44:26;16.3;67.6
78461;SHT31;67755;51.986;5.696;2023-10-31T13:46:55;16.3;66.8
78461;SHT31;67755;51.986;5.696;2023-10-31T13:49:24;16.3;66.4
78461;SHT31;67755;51.986;5.696;2023-10-31T13:51:53;16.3;66.6
78461;SHT31;67755;51.986;5.696;2023-10-31T13:54:22;16.3;67.2
78461;SHT31;67755;51.986;5.696;2023-10-31T13:56:53;16.3;64.7
78461;SHT31;67755;51.986;5.696;2023-10-31T13:59:21;16.3;65.3
78461;SHT31;67755;51.986;5.696;2023-10-31T14:01:50;16.3;65.8
78461;SHT31;67755;51.986;5.696;2023-10-31T14:04:19;16.2;65.2
78461;SHT31;67755;51.986;5.696;2023-10-31T14:06:48;16.2;65.1
78461;SHT31;67755;51.986;5.696;2023-10-31T14:09:18;16.2;65.4
78461;SHT31;67755;51.986;5.696;2023-10-31T14:11:49;16.2;66.2
78461;SHT31;67755;51.986;5.696;2023-10-31T14:14:18;16.2;66.1
78461;SHT31;67755;51.986;5.696;2023-10-31T14:16:47;16.2;65.8
78461;SHT31;67755;51.986;5.696;2023-10-31T14:19:15;16.2;65.2
78461;SHT31;67755;51.986;5.696;2023-10-31T14:21:44;16.2;65.1
78461;SHT31;67755;51.986;5.696;2023-10-31T14:24:14;16.2;65.6
78461;SHT31;67755;51.986;5.696;2023-10-31T14:26:43;16.2;65.6
78461;SHT31;67755;51.986;5.696;2023-10-31T14:29:11;16.2;65.9
78461;SHT31;67755;51.986;5.696;2023-10-31T14:31:41;16.2;66.5
78461;SHT31;67755;51.986;5.696;2023-10-31T14:34:10;16.2;66.3
78461;SHT31;67755;51.986;5.696;2023-10-31T14:36:41;16.2;67.4
78461;SHT31;67755;51.986;5.696;2023-10-31T14:39:10;16.2;66.7
78461;SHT31;67755;51.986;5.696;2023-10-31T14:41:38;16.2;67.8
78461;SHT31;67755;51.986;5.696;2023-10-31T14:44:07;16.2;67.9
78461;SHT31;67755;51.986;5.696;2023-10-31T14:46:36;16.2;66.3
78461;SHT31;67755;51.986;5.696;2023-10-31T14:49:06;16.2;66.2
78461;SHT31;67755;51.986;5.696;2023-10-31T14:51:36;16.1;65.3
78461;SHT31;67755;51.986;5.696;2023-10-31T14:54:05;16.1;64.3
78461;SHT31;67755;51.986;5.696;2023-10-31T14:56:34;16.1;65.7
78461;SHT31;67755;51.986;5.696;2023-10-31T14:59:04;16.1;64.0
78461;SHT31;67755;51.986;5.696;2023-10-31T15:01:32;16.1;65.8
78461;SHT31;67755;51.986;5.696;2023-10-31T15:04:01;16.1;64.7
78461;SHT31;67755;51.986;5.696;2023-10-31T15:06:29;16.0;66.1
78461;SHT31;67755;51.986;5.696;2023-10-31T15:09:00;16.0;65.7
78461;SHT31;67755;51.986;5.696;2023-10-31T15:11:29;16.0;65.6
78461;SHT31;67755;51.986;5.696;2023-10-31T15:13:58;16.0;65.7
78461;SHT31;67755;51.986;5.696;2023-10-31T15:16:26;16.0;64.9
78461;SHT31;67755;51.986;5.696;2023-10-31T15:18:55;16.0;66.0
78461;SHT31;67755;51.986;5.696;2023-10-31T15:21:23;16.0;65.6
78461;SHT31;67755;51.986;5.696;2023-10-31T15:23:53;15.9;66.8
78461;SHT31;67755;51.986;5.696;2023-10-31T15:26:22;15.9;66.7
78461;SHT31;67755;51.986;5.696;2023-10-31T15:28:53;15.9;67.2
78461;SHT31;67755;51.986;5.696;2023-10-31T15:31:21;15.9;66.7
78461;SHT31;67755;51.986;5.696;2023-10-31T15:33:50;15.9;67.1
78461;SHT31;67755;51.986;5.696;2023-10-31T15:36:19;15.9;67.1
78461;SHT31;67755;51.986;5.696;2023-10-31T15:38:47;15.9;67.8
78461;SHT31;67755;51.986;5.696;2023-10-31T15:41:17;15.9;67.5
78461;SHT31;67755;51.986;5.696;2023-10-31T15:43:47;15.8;67.4
78461;SHT31;67755;51.986;5.696;2023-10-31T15:46:18;15.8;68.4
78461;SHT31;67755;51.986;5.696;2023-10-31T15:48:47;15.8;67.7
78461;SHT31;67755;51.986;5.696;2023-10-31T15:51:15;15.8;68.2
78461;SHT31;67755;51.986;5.696;2023-10-31T15:53:45;15.8;68.3
78461;SHT31;67755;51.986;5.696;2023-10-31T15:56:16;15.8;68.4
78461;SHT31;67755;51.986;5.696;2023-10-31T15:58:45;15.8;67.8
78461;SHT31;67755;51.986;5.696;2023-10-31T16:01:13;15.8;67.9
78461;SHT31;67755;51.986;5.696;2023-10-31T16:03:42;15.8;68.3
78461;SHT31;67755;51.986;5.696;2023-10-31T16:06:11;15.7;68.5
78461;SHT31;67755;51.986;5.696;2023-10-31T16:08:40;15.7;68.8
78461;SHT31;67755;51.986;5.696;2023-10-31T16:11:09;15.7;68.4
78461;SHT31;67755;51.986;5.696;2023-10-31T16:13:38;15.7;68.7
78461;SHT31;67755;51.986;5.696;2023-10-31T16:16:12;15.7;68.7